createdAt,value
2019-02-20T00:02:40.121Z,90.60
2019-02-20T00:07:43.375Z,90.36
2019-02-20T00:12:47.302Z,89.81
2019-02-20T00:17:50.716Z,89.94
2019-02-20T00:22:54.031Z,89.80
2019-02-20T00:27:56.956Z,89.37
2019-02-20T00:32:59.832Z,89.70
2019-02-20T00:38:03.356Z,90.04
2019-02-20T00:43:06.613Z,89.66
2019-02-20T00:48:35.685Z,89.41
2019-02-20T00:53:44.218Z,89.26
2019-02-20T00:58:49.671Z,90.34
2019-02-20T01:03:52.825Z,90.28
2019-02-20T01:08:55.685Z,91.28
2019-02-20T01:13:58.539Z,92.38
2019-02-20T01:19:01.799Z,92.20
2019-02-20T01:24:04.975Z,92.09
2019-02-20T01:29:08.149Z,92.00
2019-02-20T01:34:11.599Z,91.98
2019-02-20T01:39:14.437Z,92.34
2019-02-20T01:44:17.440Z,92.22
2019-02-20T01:49:20.033Z,92.32
2019-02-20T01:54:23.280Z,92.49
2019-02-20T01:59:26.468Z,93.52
2019-02-20T02:04:29.614Z,94.34
2019-02-20T02:09:32.464Z,93.83
2019-02-20T02:14:35.650Z,93.54
2019-02-20T02:19:38.848Z,93.51
2019-02-20T02:24:42.015Z,93.82
2019-02-20T02:29:45.521Z,93.74
2019-02-20T02:34:49.044Z,93.77
2019-02-20T02:39:52.510Z,93.70
2019-02-20T02:44:55.411Z,93.44
2019-02-20T02:49:58.463Z,94.23
2019-02-20T02:55:01.971Z,94.01
2019-02-20T03:00:06.298Z,93.65
2019-02-20T03:05:09.507Z,93.44
2019-02-20T03:10:12.698Z,93.10
2019-02-20T03:15:16.209Z,93.02
2019-02-20T03:20:18.758Z,92.67
2019-02-20T03:25:22.139Z,92.88
2019-02-20T03:30:25.643Z,93.37
2019-02-20T03:35:29.160Z,92.85
2019-02-20T03:40:32.367Z,92.92
2019-02-20T03:45:35.093Z,93.17
2019-02-20T03:50:37.944Z,93.30
2019-02-20T03:55:40.807Z,92.99
2019-02-20T04:00:43.728Z,93.84
2019-02-20T04:05:47.364Z,93.10
2019-02-20T04:10:50.819Z,93.75
2019-02-20T04:15:53.796Z,93.37
2019-02-20T04:20:56.947Z,93.32
2019-02-20T04:26:00.570Z,93.11
2019-02-20T04:31:03.448Z,93.27
2019-02-20T04:36:06.979Z,92.67
2019-02-20T04:41:09.785Z,93.15
2019-02-20T04:46:12.845Z,93.10
2019-02-20T04:51:15.866Z,92.67
2019-02-20T04:56:19.373Z,91.93
2019-02-20T05:01:22.521Z,92.40
2019-02-20T05:06:25.954Z,92.72
2019-02-20T05:11:28.840Z,92.53
2019-02-20T05:16:32.777Z,92.07
2019-02-20T05:21:36.266Z,93.27
2019-02-20T05:26:39.266Z,92.82
2019-02-20T05:31:42.321Z,92.28
2019-02-20T05:36:46.639Z,91.97
2019-02-20T05:41:49.672Z,92.02
2019-02-20T05:46:52.840Z,93.42
2019-02-20T05:51:56.050Z,93.62
2019-02-20T05:56:59.554Z,92.96
2019-02-20T06:02:03.074Z,93.20
2019-02-20T06:07:05.950Z,93.11
2019-02-20T06:12:09.644Z,93.05
2019-02-20T06:17:12.711Z,92.63
2019-02-20T06:22:15.731Z,94.25
2019-02-20T06:27:18.953Z,93.92
2019-02-20T06:32:24.104Z,94.39
2019-02-20T06:37:27.111Z,95.10
2019-02-20T06:42:30.383Z,94.77
2019-02-20T06:47:33.620Z,94.42
2019-02-20T06:52:37.178Z,95.10
2019-02-20T06:57:40.320Z,95.07
2019-02-20T07:02:43.507Z,94.27
2019-02-20T07:08:33.466Z,94.70
2019-02-20T07:14:01.049Z,94.15
2019-02-20T07:19:26.211Z,93.44
2019-02-20T07:25:10.982Z,94.50
2019-02-20T07:30:13.965Z,93.98
2019-02-20T07:35:16.484Z,94.23
2019-02-20T07:40:19.405Z,93.47
2019-02-20T07:45:22.839Z,94.19
2019-02-20T07:50:25.782Z,94.35
2019-02-20T07:55:28.269Z,95.07
2019-02-20T08:00:31.233Z,94.63
2019-02-20T08:05:34.492Z,92.98
2019-02-20T08:10:37.688Z,92.74
2019-02-20T08:15:40.999Z,94.21
2019-02-20T08:20:43.881Z,92.92
2019-02-20T08:25:46.399Z,92.90
2019-02-20T08:30:49.892Z,92.78
2019-02-20T08:35:53.485Z,92.37
2019-02-20T08:40:56.038Z,92.01
2019-02-20T08:45:59.560Z,91.61
2019-02-20T08:51:02.940Z,91.62
2019-02-20T08:56:06.623Z,90.35
2019-02-20T09:01:10.097Z,90.65
2019-02-20T09:06:13.612Z,90.35
2019-02-20T09:11:17.129Z,89.83
2019-02-20T09:16:20.186Z,90.41
2019-02-20T09:21:23.635Z,89.42
2019-02-20T09:26:26.918Z,88.75
2019-02-20T09:31:30.520Z,88.43
2019-02-20T09:36:34.102Z,88.20
2019-02-20T09:41:37.327Z,87.95
2019-02-20T09:46:40.841Z,88.21
2019-02-20T09:51:44.086Z,88.59
2019-02-20T09:56:47.572Z,88.61
2019-02-20T10:01:50.702Z,88.33
2019-02-20T10:06:53.977Z,89.71
2019-02-20T10:11:57.402Z,89.87
2019-02-20T10:17:00.912Z,89.33
2019-02-20T10:22:04.138Z,89.62
2019-02-20T10:27:07.028Z,90.87
2019-02-20T10:32:09.922Z,91.05
2019-02-20T10:37:12.784Z,90.52
2019-02-20T10:42:17.484Z,88.72
2019-02-20T10:47:20.074Z,88.23
2019-02-20T10:52:23.602Z,88.99
2019-02-20T10:57:26.796Z,89.45
2019-02-20T11:02:30.092Z,89.19
2019-02-20T11:07:33.097Z,88.59
2019-02-20T11:12:36.635Z,88.17
2019-02-20T11:17:39.851Z,89.81
2019-02-20T11:22:43.353Z,89.36
2019-02-20T11:27:46.926Z,89.19
2019-02-20T11:32:49.778Z,88.94
2019-02-20T11:37:53.179Z,89.76
2019-02-20T11:42:56.419Z,89.47
2019-02-20T11:48:00.028Z,88.81
2019-02-20T11:53:03.568Z,88.69
2019-02-20T11:58:06.742Z,89.01
2019-02-20T12:03:10.014Z,88.69
2019-02-20T12:08:13.955Z,89.44
2019-02-20T12:13:17.126Z,89.52
2019-02-20T12:18:20.301Z,89.78
2019-02-20T12:23:24.844Z,90.54
2019-02-20T12:28:27.806Z,89.51
2019-02-20T12:33:30.815Z,89.94
2019-02-20T12:38:33.761Z,90.51
2019-02-20T12:43:37.005Z,92.26
2019-02-20T12:48:40.241Z,91.43
2019-02-20T12:53:43.777Z,92.26
2019-02-20T12:58:47.258Z,93.18
2019-02-20T13:03:50.811Z,91.65
2019-02-20T13:08:54.025Z,91.67
2019-02-20T13:13:57.246Z,92.93
2019-02-20T13:19:00.441Z,93.28
2019-02-20T13:24:03.993Z,93.76
2019-02-20T13:29:06.895Z,94.48
2019-02-20T13:34:10.074Z,94.99
2019-02-20T13:39:13.423Z,94.35
2019-02-20T13:44:16.643Z,95.12
2019-02-20T13:49:19.834Z,93.27
2019-02-20T13:54:22.831Z,93.02
2019-02-20T13:59:26.348Z,91.95
2019-02-20T14:04:29.558Z,91.25
2019-02-20T14:09:32.766Z,91.17
2019-02-20T14:14:36.033Z,90.84
2019-02-20T14:19:39.700Z,90.57
2019-02-20T14:24:44.384Z,90.15
2019-02-20T14:29:47.656Z,88.98
2019-02-20T14:34:50.166Z,87.96
2019-02-20T14:39:53.678Z,87.47
2019-02-20T14:44:57.901Z,87.71
2019-02-20T14:50:01.810Z,87.80
2019-02-20T14:55:05.561Z,87.65
2019-02-20T15:00:09.627Z,86.20
2019-02-20T15:05:13.101Z,87.21
2019-02-20T15:10:16.432Z,87.51
2019-02-20T15:15:19.978Z,87.64
2019-02-20T15:20:23.260Z,88.03
2019-02-20T15:25:26.252Z,88.17
2019-02-20T15:30:29.149Z,87.40
2019-02-20T15:35:33.349Z,87.47
2019-02-20T15:40:36.284Z,86.94
2019-02-20T15:45:39.483Z,86.73
2019-02-20T15:50:42.819Z,86.94
2019-02-20T15:55:46.230Z,86.50
2019-02-20T16:00:49.148Z,86.16
2019-02-20T16:05:52.541Z,86.00
2019-02-20T16:10:56.815Z,86.75
2019-02-20T16:15:59.824Z,87.20
2019-02-20T16:21:03.054Z,87.14
2019-02-20T16:26:06.405Z,87.12
2019-02-20T16:31:09.983Z,86.82
2019-02-20T16:36:13.540Z,87.53
2019-02-20T16:41:17.041Z,87.57
2019-02-20T16:46:20.304Z,89.29
2019-02-20T16:51:23.742Z,90.22
2019-02-20T16:56:26.939Z,92.47
2019-02-20T17:01:30.242Z,92.45
2019-02-20T17:06:33.995Z,92.54
2019-02-20T17:11:36.936Z,93.46
2019-02-20T17:16:40.267Z,93.85
2019-02-20T17:21:43.219Z,93.66
2019-02-20T17:26:46.508Z,94.43
2019-02-20T17:31:49.966Z,93.80
2019-02-20T17:36:53.318Z,94.17
2019-02-20T17:41:56.598Z,93.97
2019-02-20T17:47:00.290Z,95.18
2019-02-20T17:52:02.926Z,95.84
2019-02-20T17:57:06.215Z,96.28
2019-02-20T18:02:09.864Z,96.79
2019-02-20T18:07:13.118Z,96.45
2019-02-20T18:12:16.698Z,96.15
2019-02-20T18:17:19.959Z,96.02
2019-02-20T18:22:25.878Z,95.54
2019-02-20T18:27:29.190Z,96.53
2019-02-20T18:32:32.791Z,97.87
2019-02-20T18:37:36.009Z,97.96
2019-02-20T18:42:38.973Z,96.95
2019-02-20T18:47:42.586Z,96.68
2019-02-20T18:52:46.377Z,95.38
2019-02-20T18:57:49.879Z,95.47
2019-02-20T19:02:53.970Z,94.40
2019-02-20T19:07:58.782Z,94.41
2019-02-20T19:13:53.505Z,94.23
2019-02-20T19:19:45.290Z,93.55
2019-02-20T19:25:29.162Z,92.88
2019-02-20T19:31:23.288Z,92.23
2019-02-20T19:36:55.579Z,91.61
2019-02-20T19:42:44.397Z,91.09
2019-02-20T19:48:12.728Z,90.98
2019-02-20T19:53:30.489Z,90.11
2019-02-20T19:59:04.021Z,89.85
2019-02-20T20:05:07.080Z,89.29
2019-02-20T20:11:00.307Z,89.66
2019-02-20T20:16:43.353Z,88.61
2019-02-20T20:22:28.891Z,88.37
2019-02-20T20:28:14.946Z,87.77
2019-02-20T20:34:02.112Z,87.81
2019-02-20T20:39:51.201Z,87.62
2019-02-20T20:45:31.874Z,87.68
2019-02-20T20:51:11.692Z,87.25
2019-02-20T20:56:36.144Z,86.78
2019-02-20T21:02:08.524Z,86.88
2019-02-20T21:08:01.559Z,86.50
2019-02-20T21:13:59.234Z,86.38
2019-02-20T21:19:48.113Z,86.62
2019-02-20T21:25:46.481Z,86.77
2019-02-20T21:31:37.092Z,86.78
2019-02-20T21:36:55.033Z,86.11
2019-02-20T21:43:04.908Z,85.84
2019-02-20T21:48:37.208Z,85.96
2019-02-20T21:54:16.423Z,85.62
2019-02-20T22:00:01.010Z,85.35
2019-02-20T22:05:36.017Z,84.45
2019-02-20T22:11:14.602Z,90.75
2019-02-20T22:17:26.531Z,82.55
2019-02-20T22:23:10.576Z,83.44
2019-02-20T22:28:37.897Z,83.31
2019-02-20T22:34:00.021Z,83.64
2019-02-20T22:39:11.356Z,83.49
2019-02-20T22:45:05.221Z,83.42
2019-02-20T22:50:44.929Z,83.33
2019-02-20T22:56:35.699Z,83.11
2019-02-20T23:01:52.224Z,83.16
2019-02-20T23:07:25.075Z,83.40
2019-02-20T23:13:03.246Z,83.43
2019-02-20T23:18:06.786Z,82.91
2019-02-20T23:23:09.986Z,83.67
2019-02-20T23:28:13.197Z,83.07
2019-02-20T23:33:16.216Z,82.65
2019-02-20T23:38:19.448Z,82.41
2019-02-20T23:43:22.810Z,82.66
2019-02-20T23:48:26.116Z,82.15
2019-02-20T23:53:29.365Z,82.00
2019-02-20T23:58:32.654Z,82.18
